createdAt,value
2019-05-07T00:01:52.614Z,99749.55
2019-05-07T00:04:22.480Z,99752.13
2019-05-07T00:06:52.886Z,99748.20
2019-05-07T00:09:23.283Z,99746.73
2019-05-07T00:11:53.446Z,99739.63
2019-05-07T00:14:24.212Z,99738.64
2019-05-07T00:16:53.870Z,99737.77
2019-05-07T00:19:23.920Z,99730.27
2019-05-07T00:21:53.859Z,99733.36
2019-05-07T00:24:23.401Z,99734.23
2019-05-07T00:26:53.344Z,99732.02
2019-05-07T00:29:23.224Z,99729.31
2019-05-07T00:31:52.788Z,99723.53
2019-05-07T00:34:24.299Z,99725.39
2019-05-07T00:36:58.246Z,99723.53
2019-05-07T00:39:32.651Z,99719.48
2019-05-07T00:42:06.453Z,99712.86
2019-05-07T00:44:37.618Z,99711.03
2019-05-07T00:47:07.629Z,99708.81
2019-05-07T00:49:37.059Z,99710.64
2019-05-07T00:52:06.481Z,99711.03
2019-05-07T00:54:36.451Z,99710.16
2019-05-07T00:57:05.925Z,99709.20
2019-05-07T00:59:35.479Z,99716.31
2019-05-07T01:02:05.300Z,99710.05
2019-05-07T01:04:34.832Z,99709.30
2019-05-07T01:07:05.669Z,99706.98
2019-05-07T01:09:35.423Z,99704.29
2019-05-07T01:12:05.844Z,99715.68
2019-05-07T01:14:35.257Z,99706.72
2019-05-07T01:17:04.840Z,99704.50
2019-05-07T01:19:34.508Z,99706.36
2019-05-07T01:22:03.918Z,99705.84
2019-05-07T01:24:33.394Z,99709.41
2019-05-07T01:27:02.889Z,99711.24
2019-05-07T01:29:34.301Z,99715.68
2019-05-07T01:32:05.314Z,99712.59
2019-05-07T01:34:54.456Z,99705.49
2019-05-07T01:37:24.116Z,99713.10
2019-05-07T01:39:53.853Z,99709.53
2019-05-07T01:42:23.368Z,99705.97
2019-05-07T01:46:04.823Z,99702.31
2019-05-07T01:48:34.711Z,99702.44
2019-05-07T01:51:04.812Z,99712.35
2019-05-07T01:53:34.383Z,99707.83
2019-05-07T01:56:05.765Z,99705.61
2019-05-07T01:58:35.190Z,99706.21
2019-05-07T02:01:05.012Z,99713.44
2019-05-07T02:03:49.170Z,99712.48
2019-05-07T02:06:29.114Z,99714.42
2019-05-07T02:09:16.703Z,99717.13
2019-05-07T02:11:47.922Z,99713.55
2019-05-07T02:14:17.376Z,99708.28
2019-05-07T02:16:46.765Z,99708.64
2019-05-07T02:19:16.135Z,99713.08
2019-05-07T02:21:45.640Z,99709.63
2019-05-07T02:24:16.975Z,99709.72
2019-05-07T02:26:49.073Z,99715.59
2019-05-07T02:29:19.591Z,99717.30
2019-05-07T02:31:49.102Z,99703.93
2019-05-07T02:34:18.491Z,99707.50
2019-05-07T02:36:48.104Z,99709.20
2019-05-07T02:39:24.109Z,99705.16
2019-05-07T02:41:56.101Z,99707.50
2019-05-07T02:44:25.550Z,99706.63
2019-05-07T02:46:59.741Z,99703.06
2019-05-07T02:49:43.873Z,99699.53
2019-05-07T02:52:13.699Z,99703.06
2019-05-07T02:54:53.913Z,99705.76
2019-05-07T02:57:24.001Z,99700.48
2019-05-07T02:59:54.761Z,99704.05
2019-05-07T03:02:24.396Z,99699.62
2019-05-07T03:04:54.464Z,99702.83
2019-05-07T03:07:24.380Z,99705.41
2019-05-07T03:09:54.196Z,99699.26
2019-05-07T03:12:24.012Z,99701.56
2019-05-07T03:14:54.087Z,99703.78
2019-05-07T03:17:24.602Z,99702.55
2019-05-07T03:19:56.156Z,99699.86
2019-05-07T03:22:25.700Z,99696.77
2019-05-07T03:24:57.432Z,99697.28
2019-05-07T03:27:29.159Z,99699.98
2019-05-07T03:30:17.585Z,99697.76
2019-05-07T03:32:57.936Z,99690.54
2019-05-07T03:35:38.395Z,99691.02
2019-05-07T03:38:08.072Z,99688.44
2019-05-07T03:40:38.004Z,99685.27
2019-05-07T03:43:09.801Z,99685.36
2019-05-07T03:45:43.210Z,99684.52
2019-05-07T03:48:14.947Z,99683.65
2019-05-07T03:50:45.375Z,99676.52
2019-05-07T03:53:15.621Z,99679.72
2019-05-07T03:55:45.937Z,99679.13
2019-05-07T03:58:16.131Z,99678.73
2019-05-07T04:00:46.733Z,99681.43
2019-05-07T04:03:19.676Z,99685.72
2019-05-07T04:05:53.109Z,99684.25
2019-05-07T04:08:24.112Z,99674.69
2019-05-07T04:10:55.999Z,99681.28
2019-05-07T04:13:27.650Z,99681.67
2019-05-07T04:15:57.832Z,99688.77
2019-05-07T04:18:28.187Z,99678.47
2019-05-07T04:20:58.269Z,99683.02
2019-05-07T04:23:28.348Z,99688.89
2019-05-07T04:26:04.535Z,99680.33
2019-05-07T04:28:36.630Z,99687.06
2019-05-07T04:31:07.167Z,99682.15
2019-05-07T04:33:39.247Z,99684.97
2019-05-07T04:36:14.102Z,99687.66
2019-05-07T04:38:44.303Z,99672.44
2019-05-07T04:41:15.051Z,99683.73
2019-05-07T04:43:46.426Z,99683.02
2019-05-07T04:46:16.585Z,99686.19
2019-05-07T04:48:46.693Z,99677.62
2019-05-07T04:51:18.342Z,99683.23
2019-05-07T04:53:48.725Z,99677.95
2019-05-07T04:56:18.680Z,99676.61
2019-05-07T04:58:49.234Z,99680.17
2019-05-07T05:01:23.428Z,99680.29
2019-05-07T05:03:53.997Z,99679.90
2019-05-07T05:06:24.916Z,99677.59
2019-05-07T05:08:56.301Z,99678.95
2019-05-07T05:11:26.915Z,99677.33
2019-05-07T05:13:56.925Z,99676.25
2019-05-07T05:16:27.936Z,99677.75
2019-05-07T05:18:59.563Z,99686.31
2019-05-07T05:21:46.057Z,99680.89
2019-05-07T05:24:29.847Z,99677.92
2019-05-07T05:27:02.574Z,99671.78
2019-05-07T05:29:34.796Z,99670.55
2019-05-07T05:32:05.765Z,99671.16
2019-05-07T05:34:36.115Z,99665.87
2019-05-07T05:37:06.383Z,99669.05
2019-05-07T05:39:36.410Z,99673.58
2019-05-07T05:42:11.838Z,99670.12
2019-05-07T05:44:42.090Z,99673.22
2019-05-07T05:47:12.232Z,99666.59
2019-05-07T05:49:42.955Z,99664.86
2019-05-07T05:52:15.435Z,99668.03
2019-05-07T05:54:47.330Z,99668.91
2019-05-07T05:57:17.295Z,99658.59
2019-05-07T05:59:57.684Z,99661.80
2019-05-07T06:02:29.313Z,99669.38
2019-05-07T06:05:02.191Z,99659.20
2019-05-07T06:07:45.935Z,99665.18
2019-05-07T06:10:17.590Z,99669.86
2019-05-07T06:12:56.938Z,99667.37
2019-05-07T06:15:33.811Z,99669.94
2019-05-07T06:18:17.950Z,99666.41
2019-05-07T06:20:44.098Z,99665.42
2019-05-07T06:23:23.528Z,99663.59
2019-05-07T06:25:54.122Z,99665.18
2019-05-07T06:28:24.825Z,99670.57
2019-05-07T06:30:55.108Z,99674.14
2019-05-07T06:33:26.168Z,99675.37
2019-05-07T06:35:58.007Z,99674.89
2019-05-07T06:38:32.049Z,99670.25
2019-05-07T06:41:14.097Z,99667.55
2019-05-07T06:43:49.122Z,99665.33
2019-05-07T06:46:23.186Z,99657.16
2019-05-07T06:48:53.619Z,99658.98
2019-05-07T06:51:25.935Z,99657.52
2019-05-07T06:53:56.811Z,99650.91
2019-05-07T06:56:26.981Z,99648.09
2019-05-07T06:59:04.807Z,99653.00
2019-05-07T07:01:42.295Z,99649.83
2019-05-07T07:04:27.496Z,99653.95
2019-05-07T07:07:23.996Z,99649.44
2019-05-07T07:09:56.034Z,99648.95
2019-05-07T07:12:33.136Z,99641.74
2019-05-07T07:15:03.533Z,99640.75
2019-05-07T07:17:33.871Z,99646.14
2019-05-07T07:20:04.985Z,99640.75
2019-05-07T07:22:35.523Z,99638.17
2019-05-07T07:25:07.647Z,99640.75
2019-05-07T07:27:38.055Z,99645.55
2019-05-07T07:30:28.116Z,99645.42
2019-05-07T07:32:59.736Z,99639.55
2019-05-07T07:35:32.207Z,99639.67
2019-05-07T07:38:03.932Z,99641.38
2019-05-07T07:40:38.804Z,99642.25
2019-05-07T07:43:09.723Z,99640.78
2019-05-07T07:45:42.071Z,99641.65
2019-05-07T07:48:13.272Z,99640.06
2019-05-07T07:50:43.993Z,99640.33
2019-05-07T07:53:14.370Z,99643.02
2019-05-07T07:55:46.036Z,99637.75
2019-05-07T07:58:17.879Z,99636.77
2019-05-07T08:00:48.199Z,99642.28
2019-05-07T08:03:18.260Z,99637.16
2019-05-07T08:05:48.581Z,99640.60
2019-05-07T08:08:18.896Z,99631.64
2019-05-07T08:10:52.016Z,99634.22
2019-05-07T08:13:24.425Z,99632.51
2019-05-07T08:15:54.627Z,99629.81
2019-05-07T08:18:26.974Z,99635.56
2019-05-07T08:20:57.167Z,99629.22
2019-05-07T08:23:27.686Z,99624.66
2019-05-07T08:25:58.521Z,99630.56
2019-05-07T08:28:28.759Z,99627.75
2019-05-07T08:31:02.969Z,99625.88
2019-05-07T08:33:34.920Z,99624.05
2019-05-07T08:36:14.829Z,99621.23
2019-05-07T08:38:52.994Z,99625.19
2019-05-07T08:41:25.731Z,99616.72
2019-05-07T08:44:09.129Z,99613.42
2019-05-07T08:46:32.847Z,99613.42
2019-05-07T08:49:03.168Z,99604.73
2019-05-07T08:51:33.595Z,99607.06
2019-05-07T08:54:06.930Z,99608.41
2019-05-07T08:56:37.707Z,99607.78
2019-05-07T08:59:08.580Z,99604.13
2019-05-07T09:01:43.068Z,99595.16
2019-05-07T09:04:13.436Z,99600.83
2019-05-07T09:06:44.362Z,99594.44
2019-05-07T09:09:14.714Z,99595.78
2019-05-07T09:11:45.706Z,99589.05
2019-05-07T09:14:16.043Z,99590.39
2019-05-07T09:16:46.633Z,99576.43
2019-05-07T09:19:16.851Z,99573.61
2019-05-07T09:21:47.036Z,99577.47
2019-05-07T09:24:17.655Z,99575.25
2019-05-07T09:26:49.677Z,99568.87
2019-05-07T09:29:36.767Z,99570.61
2019-05-07T09:32:18.016Z,99569.61
2019-05-07T09:34:51.918Z,99561.16
2019-05-07T09:37:23.519Z,99553.08
2019-05-07T09:39:54.013Z,99557.25
2019-05-07T09:42:24.285Z,99548.73
2019-05-07T09:44:54.512Z,99556.25
2019-05-07T09:47:24.841Z,99554.42
2019-05-07T09:50:04.609Z,99554.30
2019-05-07T09:52:27.818Z,99552.95
2019-05-07T09:54:58.215Z,99551.00
2019-05-07T09:57:31.498Z,99551.86
2019-05-07T10:00:02.208Z,99541.94
2019-05-07T10:02:32.167Z,99536.42
2019-05-07T10:05:02.712Z,99535.82
2019-05-07T10:07:32.742Z,99534.70
2019-05-07T10:10:03.125Z,99526.99
2019-05-07T10:12:35.070Z,99523.69
2019-05-07T10:15:06.736Z,99518.42
2019-05-07T10:17:40.892Z,99519.13
2019-05-07T10:20:21.108Z,99521.21
2019-05-07T10:22:43.244Z,99524.30
2019-05-07T10:25:13.983Z,99526.00
2019-05-07T10:27:44.500Z,99520.13
2019-05-07T10:30:15.182Z,99508.11
2019-05-07T10:32:45.697Z,99520.61
2019-05-07T10:35:16.317Z,99516.47
2019-05-07T10:37:47.016Z,99519.78
2019-05-07T10:40:17.157Z,99513.64
2019-05-07T10:42:47.537Z,99511.43
2019-05-07T10:45:35.603Z,99509.95
2019-05-07T10:48:07.283Z,99507.77
2019-05-07T10:50:39.400Z,99511.56
2019-05-07T10:53:12.418Z,99509.22
2019-05-07T10:55:45.436Z,99511.08
2019-05-07T10:58:15.610Z,99507.03
2019-05-07T11:00:45.690Z,99512.43
2019-05-07T11:03:15.911Z,99514.52
2019-05-07T11:05:46.216Z,99517.31
2019-05-07T11:08:16.629Z,99513.27
2019-05-07T11:10:46.622Z,99512.05
2019-05-07T11:13:16.645Z,99509.47
2019-05-07T11:15:48.390Z,99505.78
2019-05-07T11:18:23.426Z,99501.86
2019-05-07T11:20:53.651Z,99496.24
2019-05-07T11:23:24.297Z,99491.07
2019-05-07T11:25:54.740Z,99482.27
2019-05-07T11:28:25.060Z,99478.93
2019-05-07T11:30:55.194Z,99478.70
2019-05-07T11:33:25.356Z,99482.37
2019-05-07T11:35:55.358Z,99468.13
2019-05-07T11:38:25.603Z,99471.34
2019-05-07T11:40:55.687Z,99467.78
2019-05-07T11:43:33.264Z,99460.69
2019-05-07T11:46:04.881Z,99459.81
2019-05-07T11:48:37.036Z,99454.67
2019-05-07T11:51:08.862Z,99454.64
2019-05-07T11:53:41.956Z,99452.33
2019-05-07T11:56:12.305Z,99443.02
2019-05-07T11:58:42.592Z,99441.80
2019-05-07T12:01:14.267Z,99438.10
2019-05-07T12:03:46.100Z,99444.72
2019-05-07T12:06:16.295Z,99440.92
2019-05-07T12:08:51.828Z,99427.30
2019-05-07T12:11:18.982Z,99428.39
2019-05-07T12:13:49.593Z,99417.25
2019-05-07T12:16:22.226Z,99417.73
2019-05-07T12:18:52.414Z,99415.52
2019-05-07T12:21:24.262Z,99406.59
2019-05-07T12:23:55.152Z,99405.72
2019-05-07T12:26:25.390Z,99398.84
2019-05-07T12:28:55.762Z,99390.39
2019-05-07T12:31:30.568Z,99388.66
2019-05-07T12:34:02.651Z,99390.02
2019-05-07T12:36:32.219Z,99388.44
2019-05-07T12:39:02.705Z,99385.73
2019-05-07T12:41:35.857Z,99386.09
2019-05-07T12:44:07.761Z,99379.72
2019-05-07T12:46:38.027Z,99381.81
2019-05-07T12:49:08.512Z,99381.30
2019-05-07T12:51:53.331Z,99372.72
2019-05-07T12:54:23.502Z,99372.72
2019-05-07T12:56:53.890Z,99371.37
2019-05-07T12:59:24.155Z,99369.53
2019-05-07T13:02:21.839Z,99376.77
2019-05-07T13:04:46.608Z,99370.02
2019-05-07T13:07:22.785Z,99363.27
2019-05-07T13:09:53.576Z,99358.88
2019-05-07T13:12:24.101Z,99359.35
2019-05-07T13:14:54.075Z,99358.88
2019-05-07T13:17:24.346Z,99358.86
2019-05-07T13:19:54.703Z,99353.94
2019-05-07T13:22:25.065Z,99348.55
2019-05-07T13:24:55.514Z,99344.84
2019-05-07T13:27:26.007Z,99348.66
2019-05-07T13:29:56.227Z,99332.82
2019-05-07T13:32:26.218Z,99330.64
2019-05-07T13:34:56.224Z,99329.64
2019-05-07T13:37:32.532Z,99328.54
2019-05-07T13:40:20.032Z,99319.83
2019-05-07T13:42:54.611Z,99314.42
2019-05-07T13:45:26.336Z,99317.72
2019-05-07T13:47:58.415Z,99309.98
2019-05-07T13:50:28.801Z,99305.92
2019-05-07T13:52:59.020Z,99305.06
2019-05-07T13:55:29.180Z,99303.23
2019-05-07T13:57:59.413Z,99301.26
2019-05-07T14:00:32.441Z,99303.34
2019-05-07T14:03:03.229Z,99296.24
2019-05-07T14:05:33.931Z,99297.08
2019-05-07T14:08:04.709Z,99284.58
2019-05-07T14:10:35.102Z,99290.70
2019-05-07T14:13:12.567Z,99287.14
2019-05-07T14:15:37.756Z,99279.53
2019-05-07T14:18:08.161Z,99279.18
2019-05-07T14:20:38.504Z,99280.05
2019-05-07T14:23:09.110Z,99276.00
2019-05-07T14:25:41.832Z,99273.40
2019-05-07T14:28:10.591Z,99269.97
2019-05-07T14:30:42.089Z,99267.65
2019-05-07T14:33:17.577Z,99260.17
2019-05-07T14:35:53.838Z,99261.52
2019-05-07T14:38:26.018Z,99260.66
2019-05-07T14:40:56.408Z,99258.69
2019-05-07T14:43:28.519Z,99249.00
2019-05-07T14:45:58.676Z,99245.44
2019-05-07T14:48:29.117Z,99245.78
2019-05-07T14:50:59.612Z,99239.41
2019-05-07T14:53:30.271Z,99240.14
2019-05-07T14:56:00.545Z,99235.71
2019-05-07T14:58:31.896Z,99232.91
2019-05-07T15:01:02.841Z,99230.07
2019-05-07T15:03:34.704Z,99221.97
2019-05-07T15:06:04.706Z,99219.14
2019-05-07T15:08:34.978Z,99206.50
2019-05-07T15:11:05.582Z,99212.39
2019-05-07T15:13:35.591Z,99211.91
2019-05-07T15:16:05.655Z,99196.67
2019-05-07T15:18:42.407Z,99198.02
2019-05-07T15:21:13.841Z,99192.14
2019-05-07T15:23:44.069Z,99184.39
2019-05-07T15:26:14.503Z,99183.66
2019-05-07T15:28:46.673Z,99187.61
2019-05-07T15:31:17.783Z,99187.71
2019-05-07T15:33:48.092Z,99184.17
2019-05-07T15:36:18.015Z,99187.61
2019-05-07T15:38:48.004Z,99186.74
2019-05-07T15:41:18.493Z,99181.20
2019-05-07T15:43:48.554Z,99178.88
2019-05-07T15:46:18.733Z,99177.39
2019-05-07T15:48:49.196Z,99169.16
2019-05-07T15:51:19.298Z,99173.06
2019-05-07T15:53:52.215Z,99160.71
2019-05-07T15:56:22.685Z,99160.19
2019-05-07T15:58:52.793Z,99158.36
2019-05-07T16:01:23.391Z,99159.70
2019-05-07T16:03:54.786Z,99154.30
2019-05-07T16:06:25.477Z,99156.66
2019-05-07T16:08:57.140Z,99149.19
2019-05-07T16:11:27.185Z,99152.72
2019-05-07T16:14:06.063Z,99150.43
2019-05-07T16:16:37.635Z,99155.45
2019-05-07T16:19:12.473Z,99148.45
2019-05-07T16:21:42.734Z,99138.48
2019-05-07T16:24:12.582Z,99128.55
2019-05-07T16:26:42.476Z,99134.88
2019-05-07T16:29:13.208Z,99136.27
2019-05-07T16:31:44.390Z,99129.05
2019-05-07T16:34:14.464Z,99136.07
2019-05-07T16:36:44.543Z,99125.03
2019-05-07T16:39:14.546Z,99129.70
2019-05-07T16:41:44.738Z,99122.95
2019-05-07T16:44:14.846Z,99121.26
2019-05-07T16:46:46.431Z,99120.36
2019-05-07T16:49:16.565Z,99121.95
2019-05-07T16:51:46.649Z,99124.26
2019-05-07T16:54:16.604Z,99109.61
2019-05-07T16:57:03.941Z,99109.47
2019-05-07T16:59:33.987Z,99103.11
2019-05-07T17:02:05.686Z,99103.83
2019-05-07T17:05:06.370Z,99105.66
2019-05-07T17:07:37.882Z,99103.20
2019-05-07T17:10:11.669Z,99099.88
2019-05-07T17:12:43.222Z,99098.87
2019-05-07T17:15:13.944Z,99091.63
2019-05-07T17:17:43.907Z,99101.42
2019-05-07T17:20:13.923Z,99093.94
2019-05-07T17:22:44.079Z,99089.75
2019-05-07T17:25:15.580Z,99092.45
2019-05-07T17:27:48.510Z,99093.03
2019-05-07T17:30:17.446Z,99097.08
2019-05-07T17:32:47.548Z,99096.08
2019-05-07T17:35:17.657Z,99095.09
2019-05-07T17:37:47.632Z,99094.72
2019-05-07T17:40:17.686Z,99100.50
2019-05-07T17:42:47.655Z,99099.15
2019-05-07T17:45:17.890Z,99091.42
2019-05-07T17:47:48.069Z,99089.10
2019-05-07T17:50:19.705Z,99084.91
2019-05-07T17:52:49.847Z,99083.07
2019-05-07T17:55:22.185Z,99082.69
2019-05-07T17:57:52.325Z,99092.87
2019-05-07T18:00:22.571Z,99082.06
2019-05-07T18:03:10.496Z,99083.91
2019-05-07T18:05:42.332Z,99078.87
2019-05-07T18:08:12.669Z,99079.74
2019-05-07T18:10:42.759Z,99078.73
2019-05-07T18:13:12.848Z,99072.84
2019-05-07T18:15:43.339Z,99067.67
2019-05-07T18:18:13.490Z,99064.97
2019-05-07T18:20:43.559Z,99060.78
2019-05-07T18:23:16.882Z,99058.91
2019-05-07T18:25:45.825Z,99053.16
2019-05-07T18:28:16.201Z,99050.31
2019-05-07T18:30:46.275Z,99039.89
2019-05-07T18:33:16.047Z,99033.97
2019-05-07T18:35:47.769Z,99042.44
2019-05-07T18:38:17.898Z,99037.38
2019-05-07T18:40:47.912Z,99041.81
2019-05-07T18:43:18.021Z,99042.67
2019-05-07T18:45:48.219Z,99042.53
2019-05-07T18:48:18.052Z,99037.12
2019-05-07T18:50:48.010Z,99032.78
2019-05-07T18:53:17.993Z,99028.24
2019-05-07T18:55:48.314Z,99025.55
2019-05-07T18:58:18.321Z,99035.23
2019-05-07T19:00:51.869Z,99030.55
2019-05-07T19:03:21.832Z,99031.23
2019-05-07T19:05:52.044Z,99033.94
2019-05-07T19:08:22.952Z,99033.82
2019-05-07T19:10:52.997Z,99034.31
2019-05-07T19:13:23.170Z,99027.89
2019-05-07T19:15:56.352Z,99026.55
2019-05-07T19:18:24.429Z,99022.86
2019-05-07T19:20:53.957Z,99018.95
2019-05-07T19:23:23.940Z,99019.78
2019-05-07T19:25:53.291Z,99021.66
2019-05-07T19:28:22.688Z,99021.52
2019-05-07T19:30:52.881Z,99013.89
2019-05-07T19:33:26.675Z,99006.02
2019-05-07T19:35:53.806Z,99003.80
2019-05-07T19:38:23.152Z,99007.37
2019-05-07T19:40:52.911Z,99008.23
2019-05-07T19:43:22.370Z,99000.46
2019-05-07T19:45:52.364Z,98997.77
2019-05-07T19:48:23.117Z,98999.60
2019-05-07T19:50:52.865Z,99002.68
2019-05-07T19:53:23.518Z,99000.46
2019-05-07T19:56:09.555Z,98999.60
2019-05-07T19:58:39.038Z,99002.30
2019-05-07T20:01:11.945Z,98995.70
2019-05-07T20:03:43.289Z,98996.18
2019-05-07T20:06:12.960Z,99002.45
2019-05-07T20:08:43.721Z,99000.38
2019-05-07T20:11:14.949Z,98997.68
2019-05-07T20:13:44.406Z,98997.68
2019-05-07T20:16:15.757Z,98991.56
2019-05-07T20:18:45.222Z,98988.52
2019-05-07T20:21:14.643Z,98984.09
2019-05-07T20:23:44.094Z,98980.18
2019-05-07T20:26:13.503Z,98976.62
2019-05-07T20:28:43.090Z,98974.92
2019-05-07T20:31:12.578Z,98971.36
2019-05-07T20:33:42.439Z,98975.55
2019-05-07T20:36:12.035Z,98971.65
2019-05-07T20:38:42.691Z,98975.18
2019-05-07T20:41:13.679Z,98964.90
2019-05-07T20:43:43.406Z,98963.69
2019-05-07T20:46:12.761Z,98965.88
2019-05-07T20:48:42.460Z,98962.69
2019-05-07T20:51:12.622Z,98959.98
2019-05-07T20:53:52.270Z,98954.09
2019-05-07T20:56:39.437Z,98955.93
2019-05-07T20:59:08.807Z,98955.38
2019-05-07T21:01:38.304Z,98954.02
2019-05-07T21:04:07.895Z,98952.82
2019-05-07T21:06:37.304Z,98954.28
2019-05-07T21:09:08.511Z,98948.69
2019-05-07T21:11:37.917Z,98944.26
2019-05-07T21:14:07.391Z,98931.27
2019-05-07T21:16:36.819Z,98936.30
2019-05-07T21:19:06.239Z,98937.16
2019-05-07T21:21:35.806Z,98929.70
2019-05-07T21:24:05.270Z,98927.86
2019-05-07T21:26:34.656Z,98927.86
2019-05-07T21:29:04.232Z,98924.30
2019-05-07T21:31:33.670Z,98923.80
2019-05-07T21:34:03.299Z,98921.22
2019-05-07T21:36:32.664Z,98919.03
2019-05-07T21:39:02.463Z,98917.69
2019-05-07T21:41:33.544Z,98921.36
2019-05-07T21:44:03.049Z,98911.77
2019-05-07T21:46:33.056Z,98910.55
2019-05-07T21:49:02.800Z,98913.75
2019-05-07T21:51:32.373Z,98908.87
2019-05-07T21:54:06.231Z,98904.81
2019-05-07T21:56:37.226Z,98905.30
2019-05-07T21:59:12.581Z,98905.80
2019-05-07T22:01:43.930Z,98900.05
2019-05-07T22:04:13.347Z,98898.89
2019-05-07T22:06:45.421Z,98900.23
2019-05-07T22:09:14.521Z,98894.01
2019-05-07T22:11:44.010Z,98895.21
2019-05-07T22:14:13.375Z,98897.54
2019-05-07T22:16:43.164Z,98893.48
2019-05-07T22:19:12.670Z,98891.30
2019-05-07T22:21:43.169Z,98890.44
2019-05-07T22:24:15.090Z,98892.77
2019-05-07T22:26:44.167Z,98889.58
2019-05-07T22:29:13.473Z,98884.18
2019-05-07T22:31:44.472Z,98888.72
2019-05-07T22:34:18.423Z,98878.58
2019-05-07T22:36:47.951Z,98876.08
2019-05-07T22:39:17.417Z,98871.69
2019-05-07T22:41:46.954Z,98881.48
2019-05-07T22:44:16.694Z,98873.03
2019-05-07T22:46:46.073Z,98868.13
2019-05-07T22:49:15.703Z,98869.47
2019-05-07T22:51:45.162Z,98870.33
2019-05-07T22:54:14.806Z,98857.80
2019-05-07T22:56:58.085Z,98860.50
2019-05-07T22:59:27.717Z,98856.97
2019-05-07T23:01:57.224Z,98852.55
2019-05-07T23:04:26.644Z,98848.98
2019-05-07T23:06:56.089Z,98850.00
2019-05-07T23:09:25.532Z,98838.33
2019-05-07T23:11:55.098Z,98834.98
2019-05-07T23:14:24.632Z,98826.03
2019-05-07T23:16:55.462Z,98827.37
2019-05-07T23:19:25.109Z,98820.44
2019-05-07T23:21:54.593Z,98817.58
2019-05-07T23:24:24.967Z,98812.67
2019-05-07T23:26:54.606Z,98814.66
2019-05-07T23:29:24.051Z,98810.61
2019-05-07T23:31:55.263Z,98809.26
2019-05-07T23:34:24.787Z,98804.87
2019-05-07T23:36:54.242Z,98795.41
2019-05-07T23:39:25.258Z,98798.11
2019-05-07T23:41:57.377Z,98799.47
2019-05-07T23:44:26.180Z,98789.64
2019-05-07T23:46:55.813Z,98781.91
2019-05-07T23:49:26.381Z,98787.45
2019-05-07T23:51:55.786Z,98778.61
2019-05-07T23:54:25.230Z,98776.77
2019-05-07T23:57:05.882Z,98775.55
2019-05-07T23:59:25.791Z,98768.30
